Terminal Aerodrome Forecast
Issued by NWS

Home | Current Version | Previous Version | Text Only | Print | Product List | Glossary Off
Versions: 1 2 3 4 5 6 7 8 9 10 11 12 13 14 15 16 17 18 19

000
FTUS43 KICT 150528
TAFHUT
TAF
KHUT 150528Z 1506/1606 12010KT P6SM SCT009 BKN035
      TEMPO 1506/1508 BKN009
     FM151000 29010KT P6SM BKN015
     FM151500 31020G28KT P6SM BKN015
     FM151800 32020G28KT P6SM SCT025
     FM160200 33015KT P6SM BKN100=

USA.gov is the U.S. government's official web portal to all federal, state and local government web resources and services.